createdAt,value
2022-08-21T00:02:22.080Z,74.65
2022-08-21T00:06:24.913Z,74.69
2022-08-21T00:10:27.433Z,74.97
2022-08-21T00:14:31.999Z,75.62
2022-08-21T00:18:34.524Z,76.16
2022-08-21T00:22:37.966Z,75.54
2022-08-21T00:26:40.086Z,75.84
2022-08-21T00:30:43.511Z,75.89
2022-08-21T00:34:45.540Z,75.35
2022-08-21T00:38:47.778Z,75.44
2022-08-21T00:42:53.741Z,73.72
2022-08-21T00:46:56.027Z,75.32
2022-08-21T00:51:03.475Z,76.02
2022-08-21T00:55:09.286Z,77.26
2022-08-21T00:59:12.073Z,77.75
2022-08-21T01:03:16.611Z,78.67
2022-08-21T01:07:18.934Z,79.16
2022-08-21T01:11:22.355Z,79.82
2022-08-21T01:15:28.098Z,79.79
2022-08-21T01:19:30.936Z,78.87
2022-08-21T01:23:34.158Z,79.73
2022-08-21T01:27:37.087Z,80.78
2022-08-21T01:31:39.825Z,80.09
2022-08-21T01:35:41.930Z,80.98
2022-08-21T01:39:44.653Z,79.82
2022-08-21T01:43:47.077Z,80.84
2022-08-21T01:47:49.209Z,79.77
2022-08-21T01:51:51.548Z,80.93
2022-08-21T01:55:53.701Z,81.63
2022-08-21T01:59:55.824Z,82.46
2022-08-21T02:03:58.161Z,82.54
2022-08-21T02:08:00.288Z,84.53
2022-08-21T02:12:02.453Z,86.26
2022-08-21T02:16:05.208Z,87.26
2022-08-21T02:20:08.221Z,88.14
2022-08-21T02:24:12.439Z,87.91
2022-08-21T02:28:15.765Z,87.27
2022-08-21T02:32:17.981Z,86.98
2022-08-21T02:36:20.206Z,85.57
2022-08-21T02:40:25.214Z,84.56
2022-08-21T02:44:34.428Z,84.97
2022-08-21T02:48:37.728Z,86.73
2022-08-21T02:52:39.820Z,87.87
2022-08-21T02:56:41.930Z,87.38
2022-08-21T03:00:45.147Z,85.64
2022-08-21T03:04:47.205Z,85.95
2022-08-21T03:08:50.400Z,87.57
2022-08-21T03:12:52.847Z,88.47
2022-08-21T03:16:54.922Z,88.88
2022-08-21T03:20:57.029Z,91.03
2022-08-21T03:25:00.264Z,92.58
2022-08-21T03:29:02.373Z,92.22
2022-08-21T03:33:04.831Z,92.88
2022-08-21T03:37:08.181Z,93.09
2022-08-21T03:41:10.270Z,93.05
2022-08-21T03:45:12.339Z,93.34
2022-08-21T03:49:14.426Z,91.87
2022-08-21T03:53:18.043Z,90.67
2022-08-21T03:57:20.280Z,89.38
2022-08-21T04:01:22.493Z,87.78
2022-08-21T04:05:31.074Z,87.84
2022-08-21T04:09:33.152Z,88.88
2022-08-21T04:13:35.379Z,90.07
2022-08-21T04:17:46.505Z,91.96
2022-08-21T04:21:48.568Z,92.64
2022-08-21T04:25:52.426Z,93.78
2022-08-21T04:29:54.497Z,92.81
2022-08-21T04:33:57.878Z,92.20
2022-08-21T04:38:00.077Z,91.37
2022-08-21T04:42:02.181Z,90.14
2022-08-21T04:46:04.347Z,89.02
2022-08-21T04:50:06.972Z,88.45
2022-08-21T04:54:19.873Z,88.10
2022-08-21T04:58:26.362Z,88.06
2022-08-21T05:02:28.431Z,86.90
2022-08-21T05:06:34.796Z,85.96
2022-08-21T05:10:36.938Z,84.38
2022-08-21T05:14:39.269Z,82.51
2022-08-21T05:18:41.340Z,81.55
2022-08-21T05:22:43.747Z,82.02
2022-08-21T05:26:47.043Z,81.54
2022-08-21T05:30:50.492Z,81.63
2022-08-21T05:34:52.603Z,81.17
2022-08-21T05:38:54.867Z,80.47
2022-08-21T05:42:57.938Z,76.88
2022-08-21T05:47:08.668Z,75.34
2022-08-21T05:51:14.725Z,72.30
2022-08-21T05:55:16.840Z,59.00
2022-08-21T05:59:19.180Z,50.51
2022-08-21T06:03:25.351Z,44.92
2022-08-21T06:07:27.625Z,42.07
2022-08-21T06:11:29.748Z,39.28
2022-08-21T06:15:31.817Z,38.09
2022-08-21T06:19:34.319Z,36.78
2022-08-21T06:23:36.679Z,35.73
2022-08-21T06:27:39.004Z,34.66
2022-08-21T06:31:41.693Z,33.91
2022-08-21T06:35:43.823Z,33.33
2022-08-21T06:39:45.956Z,32.43
2022-08-21T06:43:48.184Z,31.74
2022-08-21T06:47:50.343Z,31.66
2022-08-21T06:51:52.446Z,30.77
2022-08-21T06:55:54.532Z,30.24
2022-08-21T06:59:56.607Z,29.81
2022-08-21T07:03:59.416Z,29.97
2022-08-21T07:08:01.523Z,34.18
2022-08-21T07:12:04.312Z,38.97
2022-08-21T07:16:06.664Z,41.75
2022-08-21T07:20:09.066Z,44.70
2022-08-21T07:24:11.427Z,46.55
2022-08-21T07:28:13.546Z,48.09
2022-08-21T07:32:19.615Z,50.62
2022-08-21T07:36:23.663Z,51.03
2022-08-21T07:40:26.271Z,50.73
2022-08-21T07:44:28.564Z,50.43
2022-08-21T07:48:30.636Z,51.16
2022-08-21T07:52:33.638Z,51.48
2022-08-21T07:56:35.767Z,50.27
2022-08-21T08:00:37.940Z,49.86
2022-08-21T08:04:50.635Z,49.72
2022-08-21T08:08:53.196Z,49.33
2022-08-21T08:12:55.728Z,49.56
2022-08-21T08:16:58.028Z,47.94
2022-08-21T08:21:00.378Z,48.28
2022-08-21T08:25:06.418Z,45.81
2022-08-21T08:29:11.358Z,45.71
2022-08-21T08:33:14.966Z,45.61
2022-08-21T08:37:17.323Z,46.34
2022-08-21T08:41:23.660Z,45.99
2022-08-21T08:45:27.303Z,45.54
2022-08-21T08:49:41.215Z,45.56
2022-08-21T08:53:50.428Z,45.16
2022-08-21T08:57:54.123Z,45.79
2022-08-21T09:01:56.203Z,45.73
2022-08-21T09:06:09.438Z,46.33
2022-08-21T09:10:19.021Z,45.64
2022-08-21T09:14:47.340Z,44.59
2022-08-21T09:19:04.172Z,44.93
2022-08-21T09:23:24.893Z,44.25
2022-08-21T09:27:26.940Z,44.03
2022-08-21T09:31:33.489Z,43.03
2022-08-21T09:35:38.071Z,42.51
2022-08-21T09:39:45.583Z,42.66
2022-08-21T09:43:54.722Z,43.09
2022-08-21T09:47:56.932Z,43.07
2022-08-21T09:52:00.414Z,42.01
2022-08-21T09:56:35.810Z,42.30
2022-08-21T10:00:38.252Z,42.27
2022-08-21T10:04:42.657Z,42.18
2022-08-21T10:08:44.782Z,42.20
2022-08-21T10:13:25.768Z,41.03
2022-08-21T10:17:45.963Z,41.22
2022-08-21T10:22:08.109Z,41.05
2022-08-21T10:26:36.971Z,40.41
2022-08-21T10:30:53.808Z,41.05
2022-08-21T10:35:11.174Z,40.14
2022-08-21T10:39:35.815Z,40.44
2022-08-21T10:43:54.737Z,39.44
2022-08-21T10:48:04.932Z,39.68
2022-08-21T10:52:34.694Z,40.34
2022-08-21T10:56:41.454Z,39.67
2022-08-21T11:00:48.319Z,38.28
2022-08-21T11:05:03.434Z,37.84
2022-08-21T11:09:18.455Z,38.02
2022-08-21T11:13:42.598Z,37.54
2022-08-21T11:17:51.498Z,37.39
2022-08-21T11:22:01.360Z,37.76
2022-08-21T11:26:09.740Z,38.00
2022-08-21T11:30:13.022Z,37.21
2022-08-21T11:34:23.901Z,37.13
2022-08-21T11:38:35.766Z,36.99
2022-08-21T11:42:40.819Z,36.74
2022-08-21T11:46:54.871Z,35.52
2022-08-21T11:50:59.118Z,36.42
2022-08-21T11:55:23.678Z,35.96
2022-08-21T11:59:44.201Z,37.11
2022-08-21T12:04:07.440Z,36.91
2022-08-21T12:08:28.690Z,35.15
2022-08-21T12:12:36.886Z,36.22
2022-08-21T12:16:47.319Z,35.59
2022-08-21T12:21:06.143Z,36.13
2022-08-21T12:25:12.344Z,35.32
2022-08-21T12:29:24.904Z,34.12
2022-08-21T12:33:32.922Z,34.01
2022-08-21T12:37:42.121Z,33.46
2022-08-21T12:42:06.414Z,33.18
2022-08-21T12:46:18.190Z,33.21
2022-08-21T12:50:39.081Z,33.49
2022-08-21T12:54:43.200Z,33.21
2022-08-21T12:58:47.970Z,33.61
2022-08-21T13:02:51.894Z,33.32
2022-08-21T13:06:56.183Z,33.66
2022-08-21T13:11:09.159Z,33.01
2022-08-21T13:15:22.929Z,32.66
2022-08-21T13:19:27.720Z,32.67
2022-08-21T13:23:31.133Z,32.63
2022-08-21T13:27:33.187Z,32.87
2022-08-21T13:31:35.274Z,32.49
2022-08-21T13:35:48.486Z,32.39
2022-08-21T13:39:53.277Z,32.10
2022-08-21T13:44:03.274Z,32.80
2022-08-21T13:48:06.849Z,32.61
2022-08-21T13:52:26.644Z,33.13
2022-08-21T13:56:33.890Z,31.36
2022-08-21T14:00:49.658Z,31.17
2022-08-21T14:05:01.000Z,30.69
2022-08-21T14:09:11.417Z,31.03
2022-08-21T14:13:35.863Z,30.79
2022-08-21T14:17:42.570Z,30.78
2022-08-21T14:21:45.239Z,31.50
2022-08-21T14:25:47.344Z,32.49
2022-08-21T14:29:49.451Z,31.67
2022-08-21T14:33:51.608Z,32.27
2022-08-21T14:37:55.066Z,31.76
2022-08-21T14:41:58.508Z,30.74
2022-08-21T14:46:02.225Z,31.53
2022-08-21T14:50:04.628Z,31.18
2022-08-21T14:54:08.233Z,30.91
2022-08-21T14:58:10.691Z,31.68
2022-08-21T15:02:12.858Z,30.19
2022-08-21T15:06:18.440Z,31.20
2022-08-21T15:10:20.542Z,30.82
2022-08-21T15:14:28.559Z,30.86
2022-08-21T15:18:31.353Z,30.41
2022-08-21T15:22:34.455Z,30.35
2022-08-21T15:26:37.467Z,30.94
2022-08-21T15:30:41.139Z,30.85
2022-08-21T15:34:43.226Z,30.07
2022-08-21T15:38:46.201Z,30.34
2022-08-21T15:42:48.341Z,30.51
2022-08-21T15:46:50.423Z,30.49
2022-08-21T15:50:52.488Z,30.44
2022-08-21T15:54:55.151Z,30.95
2022-08-21T15:59:13.091Z,30.51
2022-08-21T16:03:20.677Z,30.44
2022-08-21T16:07:22.916Z,31.17
2022-08-21T16:11:25.443Z,30.76
2022-08-21T16:15:27.997Z,30.61
2022-08-21T16:19:30.221Z,29.89
2022-08-21T16:23:32.249Z,29.73
2022-08-21T16:27:35.788Z,31.70
2022-08-21T16:31:40.014Z,30.83
2022-08-21T16:35:42.083Z,30.18
2022-08-21T16:39:44.754Z,31.24
2022-08-21T16:43:48.702Z,30.55
2022-08-21T16:47:51.339Z,31.80
2022-08-21T16:51:53.436Z,31.63
2022-08-21T16:55:55.528Z,31.45
2022-08-21T16:59:57.758Z,31.98
2022-08-21T17:04:00.532Z,31.91
2022-08-21T17:08:02.815Z,32.68
2022-08-21T17:12:05.924Z,32.57
2022-08-21T17:16:08.106Z,32.82
2022-08-21T17:20:10.561Z,32.36
2022-08-21T17:24:15.404Z,33.23
2022-08-21T17:28:23.584Z,32.72
2022-08-21T17:32:25.903Z,33.22
2022-08-21T17:36:30.077Z,33.34
2022-08-21T17:40:32.231Z,34.37
2022-08-21T17:44:41.338Z,34.38
2022-08-21T17:48:47.293Z,35.39
2022-08-21T17:52:49.885Z,36.43
2022-08-21T17:56:52.917Z,36.84
2022-08-21T18:00:55.142Z,37.34
2022-08-21T18:04:58.184Z,37.99
2022-08-21T18:09:00.681Z,38.08
2022-08-21T18:13:05.811Z,38.84
2022-08-21T18:17:18.385Z,39.40
2022-08-21T18:21:21.048Z,39.44
2022-08-21T18:25:23.322Z,40.38
2022-08-21T18:29:25.485Z,40.57
2022-08-21T18:33:27.924Z,40.56
2022-08-21T18:37:30.081Z,40.91
2022-08-21T18:41:32.227Z,41.71
2022-08-21T18:45:36.917Z,42.18
2022-08-21T18:49:39.051Z,42.18
2022-08-21T18:53:43.189Z,42.59
2022-08-21T18:57:48.770Z,43.10
2022-08-21T19:01:50.857Z,43.60
2022-08-21T19:05:54.139Z,44.21
2022-08-21T19:10:24.252Z,44.57
2022-08-21T19:14:18.545Z,44.76
2022-08-21T19:18:28.233Z,45.09
2022-08-21T19:22:30.830Z,45.53
2022-08-21T19:26:34.801Z,45.77
2022-08-21T19:30:39.249Z,46.46
2022-08-21T19:34:42.662Z,46.81
2022-08-21T19:38:44.904Z,47.06
2022-08-21T19:42:47.169Z,47.60
2022-08-21T19:46:52.041Z,47.96
2022-08-21T19:50:54.094Z,48.49
2022-08-21T19:54:56.209Z,48.54
2022-08-21T19:58:58.597Z,48.71
2022-08-21T20:03:00.997Z,48.49
2022-08-21T20:07:04.520Z,48.96
2022-08-21T20:11:13.118Z,48.81
2022-08-21T20:15:21.808Z,49.31
2022-08-21T20:19:23.881Z,49.66
2022-08-21T20:23:30.024Z,50.12
2022-08-21T20:27:32.694Z,50.33
2022-08-21T20:31:42.806Z,50.74
2022-08-21T20:35:48.479Z,51.20
2022-08-21T20:39:50.858Z,51.42
2022-08-21T20:43:56.830Z,51.53
2022-08-21T20:48:04.378Z,51.88
2022-08-21T20:52:07.737Z,51.89
2022-08-21T20:56:37.212Z,52.66
2022-08-21T21:00:43.572Z,53.13
2022-08-21T21:05:00.242Z,52.73
2022-08-21T21:09:13.616Z,52.05
2022-08-21T21:13:22.909Z,51.74
2022-08-21T21:17:38.321Z,51.33
2022-08-21T21:21:56.866Z,50.83
2022-08-21T21:26:06.798Z,50.62
2022-08-21T21:30:12.046Z,50.38
2022-08-21T21:34:16.951Z,50.35
2022-08-21T21:38:51.658Z,50.06
2022-08-21T21:43:10.156Z,50.24
2022-08-21T21:47:36.365Z,50.41
2022-08-21T21:51:51.632Z,50.25
2022-08-21T21:56:09.237Z,50.34
2022-08-21T22:00:19.295Z,50.40
2022-08-21T22:04:39.269Z,50.60
2022-08-21T22:09:09.329Z,50.66
2022-08-21T22:13:26.684Z,50.78
2022-08-21T22:17:34.458Z,50.75
2022-08-21T22:21:42.477Z,51.39
2022-08-21T22:25:50.128Z,51.56
2022-08-21T22:29:57.344Z,51.57
2022-08-21T22:38:40.932Z,52.22
2022-08-21T22:42:43.139Z,52.41
2022-08-21T22:46:51.422Z,53.25
2022-08-21T22:51:00.666Z,53.36
2022-08-21T22:55:16.879Z,54.16
2022-08-21T22:59:31.905Z,54.24
2022-08-21T23:03:57.216Z,55.20
2022-08-21T23:08:14.123Z,54.94
2022-08-21T23:12:33.927Z,55.17
2022-08-21T23:16:53.747Z,55.82
2022-08-21T23:21:19.000Z,56.34
2022-08-21T23:25:21.010Z,56.88
2022-08-21T23:29:41.893Z,57.64
2022-08-21T23:34:07.165Z,58.06
2022-08-21T23:38:23.015Z,58.38
2022-08-21T23:42:47.277Z,58.28
2022-08-21T23:47:03.911Z,58.72
2022-08-21T23:51:13.068Z,58.56
2022-08-21T23:55:24.753Z,59.69
2022-08-21T23:59:55.680Z,61.21
